sensor_id;sensor_type;location;lat;lon;timestamp;temperature;humidity
52044;DHT22;38053;53.100;6.078;2023-07-24T00:00:00;17.40;99.90
52044;DHT22;38053;53.100;6.078;2023-07-24T00:02:26;17.40;99.90
52044;DHT22;38053;53.100;6.078;2023-07-24T00:04:51;17.40;99.90
52044;DHT22;38053;53.100;6.078;2023-07-24T00:07:17;17.40;99.90
52044;DHT22;38053;53.100;6.078;2023-07-24T00:09:43;17.40;99.90
52044;DHT22;38053;53.100;6.078;2023-07-24T00:12:09;17.40;99.90
52044;DHT22;38053;53.100;6.078;2023-07-24T00:14:35;17.50;99.90
52044;DHT22;38053;53.100;6.078;2023-07-24T00:17:04;17.40;99.90
52044;DHT22;38053;53.100;6.078;2023-07-24T00:19:29;17.40;99.90
52044;DHT22;38053;53.100;6.078;2023-07-24T00:21:55;17.40;99.90
52044;DHT22;38053;53.100;6.078;2023-07-24T00:24:21;17.40;99.90
52044;DHT22;38053;53.100;6.078;2023-07-24T00:26:46;17.40;99.90
52044;DHT22;38053;53.100;6.078;2023-07-24T00:29:12;17.40;99.90
52044;DHT22;38053;53.100;6.078;2023-07-24T00:31:39;17.30;99.90
52044;DHT22;38053;53.100;6.078;2023-07-24T00:34:05;17.30;99.90
52044;DHT22;38053;53.100;6.078;2023-07-24T00:36:31;17.30;99.90
52044;DHT22;38053;53.100;6.078;2023-07-24T00:38:56;17.30;99.90
52044;DHT22;38053;53.100;6.078;2023-07-24T00:41:25;17.30;99.90
52044;DHT22;38053;53.100;6.078;2023-07-24T00:43:51;17.30;99.90
52044;DHT22;38053;53.100;6.078;2023-07-24T00:46:17;17.30;99.90
52044;DHT22;38053;53.100;6.078;2023-07-24T00:48:43;17.30;99.90
52044;DHT22;38053;53.100;6.078;2023-07-24T00:51:09;17.30;99.90
52044;DHT22;38053;53.100;6.078;2023-07-24T00:53:36;17.30;99.90
52044;DHT22;38053;53.100;6.078;2023-07-24T00:56:02;17.20;99.90
52044;DHT22;38053;53.100;6.078;2023-07-24T00:58:30;17.20;99.90
52044;DHT22;38053;53.100;6.078;2023-07-24T01:00:55;17.20;99.90
52044;DHT22;38053;53.100;6.078;2023-07-24T01:03:23;17.20;99.90
52044;DHT22;38053;53.100;6.078;2023-07-24T01:05:54;17.10;99.90
52044;DHT22;38053;53.100;6.078;2023-07-24T01:08:21;17.10;99.90
52044;DHT22;38053;53.100;6.078;2023-07-24T01:10:47;17.10;99.90
52044;DHT22;38053;53.100;6.078;2023-07-24T01:13:22;17.00;99.90
52044;DHT22;38053;53.100;6.078;2023-07-24T01:15:59;17.00;99.90
52044;DHT22;38053;53.100;6.078;2023-07-24T01:18:27;16.90;99.90
52044;DHT22;38053;53.100;6.078;2023-07-24T01:20:59;16.90;99.90
52044;DHT22;38053;53.100;6.078;2023-07-24T01:26:30;16.80;99.90
52044;DHT22;38053;53.100;6.078;2023-07-24T01:28:56;16.80;99.90
52044;DHT22;38053;53.100;6.078;2023-07-24T01:31:21;16.80;99.90
52044;DHT22;38053;53.100;6.078;2023-07-24T01:33:47;16.70;99.90
52044;DHT22;38053;53.100;6.078;2023-07-24T01:36:15;16.70;99.90
52044;DHT22;38053;53.100;6.078;2023-07-24T01:38:41;16.70;99.90
52044;DHT22;38053;53.100;6.078;2023-07-24T01:41:07;16.60;99.90
52044;DHT22;38053;53.100;6.078;2023-07-24T01:43:34;16.60;99.90
52044;DHT22;38053;53.100;6.078;2023-07-24T01:45:59;16.50;99.90
52044;DHT22;38053;53.100;6.078;2023-07-24T01:48:25;16.50;99.90
52044;DHT22;38053;53.100;6.078;2023-07-24T01:50:52;16.50;99.90
52044;DHT22;38053;53.100;6.078;2023-07-24T01:53:19;16.50;99.90
52044;DHT22;38053;53.100;6.078;2023-07-24T01:55:48;16.50;99.90
52044;DHT22;38053;53.100;6.078;2023-07-24T01:58:13;16.40;99.90
52044;DHT22;38053;53.100;6.078;2023-07-24T02:00:40;16.40;99.90
52044;DHT22;38053;53.100;6.078;2023-07-24T02:03:06;16.40;99.90
52044;DHT22;38053;53.100;6.078;2023-07-24T02:05:32;16.30;99.90
52044;DHT22;38053;53.100;6.078;2023-07-24T02:07:57;16.30;99.90
52044;DHT22;38053;53.100;6.078;2023-07-24T02:10:23;16.30;99.90
52044;DHT22;38053;53.100;6.078;2023-07-24T02:12:49;16.30;99.90
52044;DHT22;38053;53.100;6.078;2023-07-24T02:15:14;16.30;99.90
52044;DHT22;38053;53.100;6.078;2023-07-24T02:17:41;16.30;99.90
52044;DHT22;38053;53.100;6.078;2023-07-24T02:20:08;16.40;99.90
52044;DHT22;38053;53.100;6.078;2023-07-24T02:22:33;16.40;99.90
52044;DHT22;38053;53.100;6.078;2023-07-24T02:24:59;16.50;99.90
52044;DHT22;38053;53.100;6.078;2023-07-24T02:27:27;16.50;99.90
52044;DHT22;38053;53.100;6.078;2023-07-24T02:29:53;16.60;99.90
52044;DHT22;38053;53.100;6.078;2023-07-24T02:32:20;16.60;99.90
52044;DHT22;38053;53.100;6.078;2023-07-24T02:34:49;16.70;99.90
52044;DHT22;38053;53.100;6.078;2023-07-24T02:37:15;16.70;99.90
52044;DHT22;38053;53.100;6.078;2023-07-24T02:39:43;16.70;99.90
52044;DHT22;38053;53.100;6.078;2023-07-24T02:42:11;16.80;99.90
52044;DHT22;38053;53.100;6.078;2023-07-24T02:44:38;16.80;99.90
52044;DHT22;38053;53.100;6.078;2023-07-24T02:47:04;16.80;99.90
52044;DHT22;38053;53.100;6.078;2023-07-24T02:49:30;16.80;99.90
52044;DHT22;38053;53.100;6.078;2023-07-24T02:51:55;16.90;99.90
52044;DHT22;38053;53.100;6.078;2023-07-24T02:54:22;16.90;99.90
52044;DHT22;38053;53.100;6.078;2023-07-24T02:56:49;17.00;99.90
52044;DHT22;38053;53.100;6.078;2023-07-24T02:59:24;17.00;99.90
52044;DHT22;38053;53.100;6.078;2023-07-24T03:01:50;17.00;99.90
52044;DHT22;38053;53.100;6.078;2023-07-24T03:04:19;17.00;99.90
52044;DHT22;38053;53.100;6.078;2023-07-24T03:06:46;17.00;99.90
52044;DHT22;38053;53.100;6.078;2023-07-24T03:09:12;17.00;99.90
52044;DHT22;38053;53.100;6.078;2023-07-24T03:11:41;17.10;99.90
52044;DHT22;38053;53.100;6.078;2023-07-24T03:14:06;17.10;99.90
52044;DHT22;38053;53.100;6.078;2023-07-24T03:16:34;17.10;99.90
52044;DHT22;38053;53.100;6.078;2023-07-24T03:19:03;17.00;99.90
52044;DHT22;38053;53.100;6.078;2023-07-24T03:21:29;17.10;99.90
52044;DHT22;38053;53.100;6.078;2023-07-24T03:23:54;17.10;99.90
52044;DHT22;38053;53.100;6.078;2023-07-24T03:26:21;17.10;99.90
52044;DHT22;38053;53.100;6.078;2023-07-24T03:28:47;17.10;99.90
52044;DHT22;38053;53.100;6.078;2023-07-24T03:31:13;17.10;99.90
52044;DHT22;38053;53.100;6.078;2023-07-24T03:33:38;17.10;99.90
52044;DHT22;38053;53.100;6.078;2023-07-24T03:36:04;17.10;99.90
52044;DHT22;38053;53.100;6.078;2023-07-24T03:38:30;17.10;99.90
52044;DHT22;38053;53.100;6.078;2023-07-24T03:40:56;17.10;99.90
52044;DHT22;38053;53.100;6.078;2023-07-24T03:43:22;17.10;99.90
52044;DHT22;38053;53.100;6.078;2023-07-24T03:45:48;17.10;99.90
52044;DHT22;38053;53.100;6.078;2023-07-24T03:48:13;17.10;99.90
52044;DHT22;38053;53.100;6.078;2023-07-24T03:50:40;17.20;99.90
52044;DHT22;38053;53.100;6.078;2023-07-24T03:53:09;17.20;99.90
52044;DHT22;38053;53.100;6.078;2023-07-24T03:55:35;17.20;99.90
52044;DHT22;38053;53.100;6.078;2023-07-24T03:58:03;17.10;99.90
52044;DHT22;38053;53.100;6.078;2023-07-24T04:00:29;17.20;99.90
52044;DHT22;38053;53.100;6.078;2023-07-24T04:02:55;17.10;99.90
52044;DHT22;38053;53.100;6.078;2023-07-24T04:05:23;17.20;99.90
52044;DHT22;38053;53.100;6.078;2023-07-24T04:07:54;17.20;99.90
52044;DHT22;38053;53.100;6.078;2023-07-24T04:10:20;17.20;99.90
52044;DHT22;38053;53.100;6.078;2023-07-24T04:12:45;17.20;99.90
52044;DHT22;38053;53.100;6.078;2023-07-24T04:15:11;17.10;99.90
52044;DHT22;38053;53.100;6.078;2023-07-24T04:17:37;17.10;99.90
52044;DHT22;38053;53.100;6.078;2023-07-24T04:20:05;17.10;99.90
52044;DHT22;38053;53.100;6.078;2023-07-24T04:22:31;17.10;99.90
52044;DHT22;38053;53.100;6.078;2023-07-24T04:24:56;17.10;99.90
52044;DHT22;38053;53.100;6.078;2023-07-24T04:27:23;17.10;99.90
52044;DHT22;38053;53.100;6.078;2023-07-24T04:29:49;17.10;99.90
52044;DHT22;38053;53.100;6.078;2023-07-24T04:32:14;17.10;99.90
52044;DHT22;38053;53.100;6.078;2023-07-24T04:34:41;17.00;99.90
52044;DHT22;38053;53.100;6.078;2023-07-24T04:37:07;17.10;99.90
52044;DHT22;38053;53.100;6.078;2023-07-24T04:39:33;17.10;99.90
52044;DHT22;38053;53.100;6.078;2023-07-24T04:41:59;17.10;99.90
52044;DHT22;38053;53.100;6.078;2023-07-24T04:44:25;17.00;99.90
52044;DHT22;38053;53.100;6.078;2023-07-24T04:46:50;17.10;99.90
52044;DHT22;38053;53.100;6.078;2023-07-24T04:49:16;17.00;99.90
52044;DHT22;38053;53.100;6.078;2023-07-24T04:51:42;17.00;99.90
52044;DHT22;38053;53.100;6.078;2023-07-24T04:54:08;17.00;99.90
52044;DHT22;38053;53.100;6.078;2023-07-24T04:56:35;17.10;99.90
52044;DHT22;38053;53.100;6.078;2023-07-24T04:59:01;17.10;99.90
52044;DHT22;38053;53.100;6.078;2023-07-24T05:01:30;17.10;99.90
52044;DHT22;38053;53.100;6.078;2023-07-24T05:03:56;17.00;99.90
52044;DHT22;38053;53.100;6.078;2023-07-24T05:06:22;17.00;99.90
52044;DHT22;38053;53.100;6.078;2023-07-24T05:08:49;17.00;99.90
52044;DHT22;38053;53.100;6.078;2023-07-24T05:11:14;17.10;99.90
52044;DHT22;38053;53.100;6.078;2023-07-24T05:13:40;17.10;99.90
52044;DHT22;38053;53.100;6.078;2023-07-24T05:16:09;17.10;99.90
52044;DHT22;38053;53.100;6.078;2023-07-24T05:18:35;17.20;99.90
52044;DHT22;38053;53.100;6.078;2023-07-24T05:21:00;17.20;99.90
52044;DHT22;38053;53.100;6.078;2023-07-24T05:23:26;17.10;99.90
52044;DHT22;38053;53.100;6.078;2023-07-24T05:25:59;17.20;99.90
52044;DHT22;38053;53.100;6.078;2023-07-24T05:28:30;17.20;99.90
52044;DHT22;38053;53.100;6.078;2023-07-24T05:30:56;17.20;99.90
52044;DHT22;38053;53.100;6.078;2023-07-24T05:33:28;17.20;99.90
52044;DHT22;38053;53.100;6.078;2023-07-24T05:35:59;17.20;99.90
52044;DHT22;38053;53.100;6.078;2023-07-24T05:38:25;17.20;99.90
52044;DHT22;38053;53.100;6.078;2023-07-24T05:40:58;17.20;99.90
52044;DHT22;38053;53.100;6.078;2023-07-24T05:43:25;17.20;99.90
52044;DHT22;38053;53.100;6.078;2023-07-24T05:45:51;17.30;99.90
52044;DHT22;38053;53.100;6.078;2023-07-24T05:48:17;17.20;99.90
52044;DHT22;38053;53.100;6.078;2023-07-24T05:50:43;17.30;99.90
52044;DHT22;38053;53.100;6.078;2023-07-24T05:53:09;17.30;99.90
52044;DHT22;38053;53.100;6.078;2023-07-24T05:55:35;17.30;99.90
52044;DHT22;38053;53.100;6.078;2023-07-24T05:58:00;17.40;99.90
52044;DHT22;38053;53.100;6.078;2023-07-24T06:00:26;17.40;99.90
52044;DHT22;38053;53.100;6.078;2023-07-24T06:02:53;17.50;99.90
52044;DHT22;38053;53.100;6.078;2023-07-24T06:05:19;17.50;99.90
52044;DHT22;38053;53.100;6.078;2023-07-24T06:07:48;17.50;99.90
52044;DHT22;38053;53.100;6.078;2023-07-24T06:10:14;17.60;99.90
52044;DHT22;38053;53.100;6.078;2023-07-24T06:12:40;17.60;99.90
52044;DHT22;38053;53.100;6.078;2023-07-24T06:15:07;17.60;99.90
52044;DHT22;38053;53.100;6.078;2023-07-24T06:17:33;17.70;99.90
52044;DHT22;38053;53.100;6.078;2023-07-24T06:19:59;17.70;99.90
52044;DHT22;38053;53.100;6.078;2023-07-24T06:22:25;17.70;99.90
52044;DHT22;38053;53.100;6.078;2023-07-24T06:24:51;17.70;99.90
52044;DHT22;38053;53.100;6.078;2023-07-24T06:27:16;17.70;99.90
52044;DHT22;38053;53.100;6.078;2023-07-24T06:29:42;17.80;99.90
52044;DHT22;38053;53.100;6.078;2023-07-24T06:32:08;17.80;99.90
52044;DHT22;38053;53.100;6.078;2023-07-24T06:34:34;17.80;99.90
52044;DHT22;38053;53.100;6.078;2023-07-24T06:37:00;17.80;99.90
52044;DHT22;38053;53.100;6.078;2023-07-24T06:39:29;17.90;99.90
52044;DHT22;38053;53.100;6.078;2023-07-24T06:41:56;17.90;99.90
52044;DHT22;38053;53.100;6.078;2023-07-24T06:44:23;18.00;99.90
52044;DHT22;38053;53.100;6.078;2023-07-24T06:46:53;17.90;99.90
52044;DHT22;38053;53.100;6.078;2023-07-24T06:49:18;17.90;99.90
52044;DHT22;38053;53.100;6.078;2023-07-24T06:51:45;18.00;99.90
52044;DHT22;38053;53.100;6.078;2023-07-24T06:54:11;18.00;99.90
52044;DHT22;38053;53.100;6.078;2023-07-24T06:56:38;18.10;99.90
52044;DHT22;38053;53.100;6.078;2023-07-24T06:59:04;18.10;99.90
52044;DHT22;38053;53.100;6.078;2023-07-24T07:01:29;18.10;99.90
52044;DHT22;38053;53.100;6.078;2023-07-24T07:03:58;18.10;99.90
52044;DHT22;38053;53.100;6.078;2023-07-24T07:06:24;18.20;99.90
52044;DHT22;38053;53.100;6.078;2023-07-24T07:08:49;18.20;99.90
52044;DHT22;38053;53.100;6.078;2023-07-24T07:11:15;18.20;99.90
52044;DHT22;38053;53.100;6.078;2023-07-24T07:13:45;18.20;99.90
52044;DHT22;38053;53.100;6.078;2023-07-24T07:16:11;18.20;99.90
52044;DHT22;38053;53.100;6.078;2023-07-24T07:18:38;18.20;99.90
52044;DHT22;38053;53.100;6.078;2023-07-24T07:21:04;18.30;99.90
52044;DHT22;38053;53.100;6.078;2023-07-24T07:23:29;18.30;99.90
52044;DHT22;38053;53.100;6.078;2023-07-24T07:25:57;18.30;99.90
52044;DHT22;38053;53.100;6.078;2023-07-24T07:28:22;18.40;99.90
52044;DHT22;38053;53.100;6.078;2023-07-24T07:30:48;18.50;99.90
52044;DHT22;38053;53.100;6.078;2023-07-24T07:33:14;18.50;99.90
52044;DHT22;38053;53.100;6.078;2023-07-24T07:35:40;18.50;99.90
52044;DHT22;38053;53.100;6.078;2023-07-24T07:38:05;18.50;99.90
52044;DHT22;38053;53.100;6.078;2023-07-24T07:40:32;18.60;99.90
52044;DHT22;38053;53.100;6.078;2023-07-24T07:43:01;18.60;99.90
52044;DHT22;38053;53.100;6.078;2023-07-24T07:45:29;18.70;99.90
52044;DHT22;38053;53.100;6.078;2023-07-24T07:47:54;18.70;99.90
52044;DHT22;38053;53.100;6.078;2023-07-24T07:50:20;18.70;99.90
52044;DHT22;38053;53.100;6.078;2023-07-24T07:52:48;18.70;99.90
52044;DHT22;38053;53.100;6.078;2023-07-24T07:55:14;18.80;99.90
52044;DHT22;38053;53.100;6.078;2023-07-24T07:57:40;18.80;99.90
52044;DHT22;38053;53.100;6.078;2023-07-24T08:00:06;18.80;99.90
52044;DHT22;38053;53.100;6.078;2023-07-24T08:02:33;18.80;99.90
52044;DHT22;38053;53.100;6.078;2023-07-24T08:05:01;18.80;99.90
52044;DHT22;38053;53.100;6.078;2023-07-24T08:07:26;18.90;99.90
52044;DHT22;38053;53.100;6.078;2023-07-24T08:09:52;18.90;99.90
52044;DHT22;38053;53.100;6.078;2023-07-24T08:12:18;18.90;99.90
52044;DHT22;38053;53.100;6.078;2023-07-24T08:14:44;19.00;99.90
52044;DHT22;38053;53.100;6.078;2023-07-24T08:17:09;19.00;99.90
52044;DHT22;38053;53.100;6.078;2023-07-24T08:19:35;19.10;99.90
52044;DHT22;38053;53.100;6.078;2023-07-24T08:22:01;19.10;99.90
52044;DHT22;38053;53.100;6.078;2023-07-24T08:24:26;19.10;99.90
52044;DHT22;38053;53.100;6.078;2023-07-24T08:26:53;19.20;99.90
52044;DHT22;38053;53.100;6.078;2023-07-24T08:29:19;19.30;99.90
52044;DHT22;38053;53.100;6.078;2023-07-24T08:31:45;19.40;99.90
52044;DHT22;38053;53.100;6.078;2023-07-24T08:34:11;19.50;99.90
52044;DHT22;38053;53.100;6.078;2023-07-24T08:36:37;19.60;99.90
52044;DHT22;38053;53.100;6.078;2023-07-24T08:39:06;19.60;99.90
52044;DHT22;38053;53.100;6.078;2023-07-24T08:41:31;19.70;99.90
52044;DHT22;38053;53.100;6.078;2023-07-24T08:44:00;19.70;99.90
52044;DHT22;38053;53.100;6.078;2023-07-24T08:46:27;19.70;99.90
52044;DHT22;38053;53.100;6.078;2023-07-24T08:48:54;19.80;99.90
52044;DHT22;38053;53.100;6.078;2023-07-24T08:51:20;19.80;99.90
52044;DHT22;38053;53.100;6.078;2023-07-24T08:53:48;19.80;99.90
52044;DHT22;38053;53.100;6.078;2023-07-24T08:56:14;19.80;99.90
52044;DHT22;38053;53.100;6.078;2023-07-24T08:58:43;19.90;99.90
52044;DHT22;38053;53.100;6.078;2023-07-24T09:01:09;20.00;99.90
52044;DHT22;38053;53.100;6.078;2023-07-24T09:03:36;20.10;99.90
52044;DHT22;38053;53.100;6.078;2023-07-24T09:06:02;20.20;99.90
52044;DHT22;38053;53.100;6.078;2023-07-24T09:08:41;20.30;99.90
52044;DHT22;38053;53.100;6.078;2023-07-24T09:11:08;20.40;99.90
52044;DHT22;38053;53.100;6.078;2023-07-24T09:13:37;20.40;99.90
52044;DHT22;38053;53.100;6.078;2023-07-24T09:16:02;20.40;99.90
52044;DHT22;38053;53.100;6.078;2023-07-24T09:18:42;20.60;99.90
52044;DHT22;38053;53.100;6.078;2023-07-24T09:21:08;20.80;99.90
52044;DHT22;38053;53.100;6.078;2023-07-24T09:23:37;21.00;99.90
52044;DHT22;38053;53.100;6.078;2023-07-24T09:26:09;21.10;99.90
52044;DHT22;38053;53.100;6.078;2023-07-24T09:28:35;21.30;99.90
52044;DHT22;38053;53.100;6.078;2023-07-24T09:31:01;21.50;99.90
52044;DHT22;38053;53.100;6.078;2023-07-24T09:33:41;21.70;99.90
52044;DHT22;38053;53.100;6.078;2023-07-24T09:36:08;22.00;99.90
52044;DHT22;38053;53.100;6.078;2023-07-24T09:38:35;22.10;99.90
52044;DHT22;38053;53.100;6.078;2023-07-24T09:41:04;22.10;99.90
52044;DHT22;38053;53.100;6.078;2023-07-24T09:43:30;22.00;99.90
52044;DHT22;38053;53.100;6.078;2023-07-24T09:45:57;21.90;99.90
52044;DHT22;38053;53.100;6.078;2023-07-24T09:48:25;21.80;99.90
52044;DHT22;38053;53.100;6.078;2023-07-24T09:50:56;21.50;99.90
52044;DHT22;38053;53.100;6.078;2023-07-24T09:55:57;21.30;99.90
52044;DHT22;38053;53.100;6.078;2023-07-24T09:58:24;21.30;99.90
52044;DHT22;38053;53.100;6.078;2023-07-24T10:00:54;21.30;99.90
52044;DHT22;38053;53.100;6.078;2023-07-24T10:03:22;21.50;99.90
52044;DHT22;38053;53.100;6.078;2023-07-24T10:05:48;21.80;99.90
52044;DHT22;38053;53.100;6.078;2023-07-24T10:08:15;22.00;99.90
52044;DHT22;38053;53.100;6.078;2023-07-24T10:10:41;22.30;99.90
52044;DHT22;38053;53.100;6.078;2023-07-24T10:13:08;22.50;99.90
52044;DHT22;38053;53.100;6.078;2023-07-24T10:15:37;22.70;99.90
52044;DHT22;38053;53.100;6.078;2023-07-24T10:18:05;22.80;99.90
52044;DHT22;38053;53.100;6.078;2023-07-24T10:20:39;22.80;99.90
52044;DHT22;38053;53.100;6.078;2023-07-24T10:23:10;22.60;99.90
52044;DHT22;38053;53.100;6.078;2023-07-24T10:25:39;22.30;99.90
52044;DHT22;38053;53.100;6.078;2023-07-24T10:28:10;21.90;99.90
52044;DHT22;38053;53.100;6.078;2023-07-24T10:30:40;21.50;99.90
52044;DHT22;38053;53.100;6.078;2023-07-24T10:33:13;21.20;99.90
52044;DHT22;38053;53.100;6.078;2023-07-24T10:35:44;21.00;99.90
52044;DHT22;38053;53.100;6.078;2023-07-24T10:38:16;20.80;99.90
52044;DHT22;38053;53.100;6.078;2023-07-24T10:40:43;20.60;99.90
52044;DHT22;38053;53.100;6.078;2023-07-24T10:43:11;20.50;99.90
52044;DHT22;38053;53.100;6.078;2023-07-24T10:45:56;20.40;99.90
52044;DHT22;38053;53.100;6.078;2023-07-24T10:48:25;20.30;99.90
52044;DHT22;38053;53.100;6.078;2023-07-24T10:50:51;20.30;99.90
52044;DHT22;38053;53.100;6.078;2023-07-24T10:53:21;20.30;99.90
52044;DHT22;38053;53.100;6.078;2023-07-24T10:55:48;20.40;99.90
52044;DHT22;38053;53.100;6.078;2023-07-24T10:58:14;20.40;99.90
52044;DHT22;38053;53.100;6.078;2023-07-24T11:00:40;20.60;99.90
52044;DHT22;38053;53.100;6.078;2023-07-24T11:03:14;20.70;99.90
52044;DHT22;38053;53.100;6.078;2023-07-24T11:05:44;20.90;99.90
52044;DHT22;38053;53.100;6.078;2023-07-24T11:08:15;21.20;99.90
52044;DHT22;38053;53.100;6.078;2023-07-24T11:10:49;21.50;99.90
52044;DHT22;38053;53.100;6.078;2023-07-24T11:13:16;21.60;99.90
52044;DHT22;38053;53.100;6.078;2023-07-24T11:15:42;21.50;99.90
52044;DHT22;38053;53.100;6.078;2023-07-24T11:18:08;21.70;99.90
52044;DHT22;38053;53.100;6.078;2023-07-24T11:20:38;21.80;99.90
52044;DHT22;38053;53.100;6.078;2023-07-24T11:23:10;22.10;99.90
52044;DHT22;38053;53.100;6.078;2023-07-24T11:25:37;22.10;99.90
52044;DHT22;38053;53.100;6.078;2023-07-24T11:28:08;22.10;99.90
52044;DHT22;38053;53.100;6.078;2023-07-24T11:30:34;22.00;99.90
52044;DHT22;38053;53.100;6.078;2023-07-24T11:33:02;21.90;99.90
52044;DHT22;38053;53.100;6.078;2023-07-24T11:35:29;21.70;99.90
52044;DHT22;38053;53.100;6.078;2023-07-24T11:37:54;21.40;99.90
52044;DHT22;38053;53.100;6.078;2023-07-24T11:40:20;21.30;99.90
52044;DHT22;38053;53.100;6.078;2023-07-24T11:42:49;21.10;99.90
52044;DHT22;38053;53.100;6.078;2023-07-24T11:45:15;21.00;99.90
52044;DHT22;38053;53.100;6.078;2023-07-24T11:47:48;20.80;99.90
52044;DHT22;38053;53.100;6.078;2023-07-24T11:50:16;20.80;99.90
52044;DHT22;38053;53.100;6.078;2023-07-24T11:52:44;20.90;99.90
52044;DHT22;38053;53.100;6.078;2023-07-24T11:55:11;20.90;99.90
52044;DHT22;38053;53.100;6.078;2023-07-24T11:57:41;20.90;99.90
52044;DHT22;38053;53.100;6.078;2023-07-24T12:00:21;20.90;99.90
52044;DHT22;38053;53.100;6.078;2023-07-24T12:02:48;20.80;99.90
52044;DHT22;38053;53.100;6.078;2023-07-24T12:05:14;20.70;99.90
52044;DHT22;38053;53.100;6.078;2023-07-24T12:07:43;20.70;99.90
52044;DHT22;38053;53.100;6.078;2023-07-24T12:10:13;20.60;99.90
52044;DHT22;38053;53.100;6.078;2023-07-24T12:12:46;20.60;99.90
52044;DHT22;38053;53.100;6.078;2023-07-24T12:15:14;20.50;99.90
52044;DHT22;38053;53.100;6.078;2023-07-24T12:17:40;20.40;99.90
52044;DHT22;38053;53.100;6.078;2023-07-24T12:20:08;20.40;99.90
52044;DHT22;38053;53.100;6.078;2023-07-24T12:22:36;20.40;99.90
52044;DHT22;38053;53.100;6.078;2023-07-24T12:25:02;20.20;99.90
52044;DHT22;38053;53.100;6.078;2023-07-24T12:27:28;20.20;99.90
52044;DHT22;38053;53.100;6.078;2023-07-24T12:29:54;20.20;99.90
52044;DHT22;38053;53.100;6.078;2023-07-24T12:32:20;20.20;99.90
52044;DHT22;38053;53.100;6.078;2023-07-24T12:34:48;20.20;99.90
52044;DHT22;38053;53.100;6.078;2023-07-24T12:37:14;20.30;99.90
52044;DHT22;38053;53.100;6.078;2023-07-24T12:39:40;20.50;99.90
52044;DHT22;38053;53.100;6.078;2023-07-24T12:42:06;20.70;99.90
52044;DHT22;38053;53.100;6.078;2023-07-24T12:44:32;20.80;99.90
52044;DHT22;38053;53.100;6.078;2023-07-24T12:46:58;21.20;99.90
52044;DHT22;38053;53.100;6.078;2023-07-24T12:49:24;21.50;99.90
52044;DHT22;38053;53.100;6.078;2023-07-24T12:51:50;22.10;99.90
52044;DHT22;38053;53.100;6.078;2023-07-24T12:54:16;22.50;99.90
52044;DHT22;38053;53.100;6.078;2023-07-24T12:56:45;22.70;99.90
52044;DHT22;38053;53.100;6.078;2023-07-24T12:59:11;22.90;99.90
52044;DHT22;38053;53.100;6.078;2023-07-24T13:01:37;23.10;99.90
52044;DHT22;38053;53.100;6.078;2023-07-24T13:04:04;23.10;99.90
52044;DHT22;38053;53.100;6.078;2023-07-24T13:06:30;23.00;99.90
52044;DHT22;38053;53.100;6.078;2023-07-24T13:08:55;22.80;99.90
52044;DHT22;38053;53.100;6.078;2023-07-24T13:11:21;22.50;99.90
52044;DHT22;38053;53.100;6.078;2023-07-24T13:13:47;22.10;99.90
52044;DHT22;38053;53.100;6.078;2023-07-24T13:16:13;21.80;99.90
52044;DHT22;38053;53.100;6.078;2023-07-24T13:18:38;21.70;99.90
52044;DHT22;38053;53.100;6.078;2023-07-24T13:21:04;21.30;99.90
52044;DHT22;38053;53.100;6.078;2023-07-24T13:23:32;21.00;99.90
52044;DHT22;38053;53.100;6.078;2023-07-24T13:25:58;20.70;99.90
52044;DHT22;38053;53.100;6.078;2023-07-24T13:28:23;20.50;99.90
52044;DHT22;38053;53.100;6.078;2023-07-24T13:30:49;20.50;99.90
52044;DHT22;38053;53.100;6.078;2023-07-24T13:33:15;20.60;99.90
52044;DHT22;38053;53.100;6.078;2023-07-24T13:35:41;20.70;99.90
52044;DHT22;38053;53.100;6.078;2023-07-24T13:38:07;21.10;99.90
52044;DHT22;38053;53.100;6.078;2023-07-24T13:40:36;21.00;99.90
52044;DHT22;38053;53.100;6.078;2023-07-24T13:43:01;21.10;99.90
52044;DHT22;38053;53.100;6.078;2023-07-24T13:45:28;20.90;99.90
52044;DHT22;38053;53.100;6.078;2023-07-24T13:47:56;20.70;99.90
52044;DHT22;38053;53.100;6.078;2023-07-24T13:50:21;20.40;99.90
52044;DHT22;38053;53.100;6.078;2023-07-24T13:52:47;20.20;99.90
52044;DHT22;38053;53.100;6.078;2023-07-24T13:55:13;20.00;99.90
52044;DHT22;38053;53.100;6.078;2023-07-24T13:57:39;19.90;99.90
52044;DHT22;38053;53.100;6.078;2023-07-24T14:00:06;19.80;99.90
52044;DHT22;38053;53.100;6.078;2023-07-24T14:02:31;19.70;99.90
52044;DHT22;38053;53.100;6.078;2023-07-24T14:04:57;19.60;99.90
52044;DHT22;38053;53.100;6.078;2023-07-24T14:07:26;19.50;99.90
52044;DHT22;38053;53.100;6.078;2023-07-24T14:09:51;19.40;99.90
52044;DHT22;38053;53.100;6.078;2023-07-24T14:12:17;19.30;99.90
52044;DHT22;38053;53.100;6.078;2023-07-24T14:14:43;19.10;99.90
52044;DHT22;38053;53.100;6.078;2023-07-24T14:17:08;19.10;99.90
52044;DHT22;38053;53.100;6.078;2023-07-24T14:19:34;19.10;99.90
52044;DHT22;38053;53.100;6.078;2023-07-24T14:22:00;19.30;99.90
52044;DHT22;38053;53.100;6.078;2023-07-24T14:24:27;19.40;99.90
52044;DHT22;38053;53.100;6.078;2023-07-24T14:26:52;19.20;99.90
52044;DHT22;38053;53.100;6.078;2023-07-24T14:29:18;19.10;99.90
52044;DHT22;38053;53.100;6.078;2023-07-24T14:31:44;18.90;99.90
52044;DHT22;38053;53.100;6.078;2023-07-24T14:34:10;18.80;99.90
52044;DHT22;38053;53.100;6.078;2023-07-24T14:36:38;18.70;99.90
52044;DHT22;38053;53.100;6.078;2023-07-24T14:39:05;18.80;99.90
52044;DHT22;38053;53.100;6.078;2023-07-24T14:41:31;19.00;99.90
52044;DHT22;38053;53.100;6.078;2023-07-24T14:43:57;19.30;99.90
52044;DHT22;38053;53.100;6.078;2023-07-24T14:46:24;19.50;99.90
52044;DHT22;38053;53.100;6.078;2023-07-24T14:48:50;19.60;99.90
52044;DHT22;38053;53.100;6.078;2023-07-24T14:51:15;19.70;99.90
52044;DHT22;38053;53.100;6.078;2023-07-24T14:53:41;19.40;99.90
52044;DHT22;38053;53.100;6.078;2023-07-24T14:56:07;19.30;99.90
52044;DHT22;38053;53.100;6.078;2023-07-24T14:58:32;19.10;99.90
52044;DHT22;38053;53.100;6.078;2023-07-24T15:00:59;19.10;99.90
52044;DHT22;38053;53.100;6.078;2023-07-24T15:03:24;19.00;99.90
52044;DHT22;38053;53.100;6.078;2023-07-24T15:05:50;18.80;99.90
52044;DHT22;38053;53.100;6.078;2023-07-24T15:08:17;18.70;99.90
52044;DHT22;38053;53.100;6.078;2023-07-24T15:10:43;18.60;99.90
52044;DHT22;38053;53.100;6.078;2023-07-24T15:13:13;18.60;99.90
52044;DHT22;38053;53.100;6.078;2023-07-24T15:15:39;18.50;99.90
52044;DHT22;38053;53.100;6.078;2023-07-24T15:18:07;18.40;99.90
52044;DHT22;38053;53.100;6.078;2023-07-24T15:20:33;18.40;99.90
52044;DHT22;38053;53.100;6.078;2023-07-24T15:23:00;18.30;99.90
52044;DHT22;38053;53.100;6.078;2023-07-24T15:25:26;18.10;99.90
52044;DHT22;38053;53.100;6.078;2023-07-24T15:27:52;18.00;99.90
52044;DHT22;38053;53.100;6.078;2023-07-24T15:30:17;18.00;99.90
52044;DHT22;38053;53.100;6.078;2023-07-24T15:32:43;17.90;99.90